createdAt,value
2023-02-19T00:00:55.764Z,98712.50
2023-02-19T00:01:57.597Z,98706.41
2023-02-19T00:02:59.060Z,98706.47
2023-02-19T00:04:11.780Z,98711.16
2023-02-19T00:05:13.352Z,98709.06
2023-02-19T00:06:14.885Z,98703.00
2023-02-19T00:07:16.689Z,98708.72
2023-02-19T00:08:18.153Z,98704.22
2023-02-19T00:09:20.114Z,98704.53
2023-02-19T00:10:21.539Z,98706.50
2023-02-19T00:11:28.822Z,98697.38
2023-02-19T00:12:30.320Z,98707.44
2023-02-19T00:13:32.012Z,98709.19
2023-02-19T00:14:33.580Z,98707.75
2023-02-19T00:15:35.574Z,98704.34
2023-02-19T00:16:39.235Z,98707.13
2023-02-19T00:17:40.696Z,98704.53
2023-02-19T00:18:43.250Z,98698.19
2023-02-19T00:19:44.718Z,98696.22
2023-02-19T00:20:46.231Z,98698.31
2023-02-19T00:21:51.304Z,98700.97
2023-02-19T00:22:52.745Z,98699.53
2023-02-19T00:23:56.770Z,98704.81
2023-02-19T00:24:58.260Z,98701.63
2023-02-19T00:26:18.071Z,98697.13
2023-02-19T00:27:20.780Z,98697.13
2023-02-19T00:28:22.734Z,98699.75
2023-02-19T00:29:25.108Z,98702.75
2023-02-19T00:30:26.637Z,98701.88
2023-02-19T00:31:33.660Z,98697.03
2023-02-19T00:32:35.449Z,98698.66
2023-02-19T00:33:36.972Z,98697.66
2023-02-19T00:34:38.407Z,98700.38
2023-02-19T00:35:40.004Z,98690.53
2023-02-19T00:36:42.725Z,98695.44
2023-02-19T00:37:44.367Z,98692.13
2023-02-19T00:38:46.325Z,98693.50
2023-02-19T00:39:48.427Z,98692.81
2023-02-19T00:40:49.877Z,98690.59
2023-02-19T00:41:51.333Z,98688.72
2023-02-19T00:42:52.920Z,98687.34
2023-02-19T00:44:03.295Z,98678.84
2023-02-19T00:45:05.375Z,98677.75
2023-02-19T00:46:06.837Z,98680.88
2023-02-19T00:47:08.307Z,98683.09
2023-02-19T00:48:09.722Z,98682.19
2023-02-19T00:49:18.317Z,98685.22
2023-02-19T00:50:19.758Z,98674.84
2023-02-19T00:51:25.700Z,98678.84
2023-02-19T00:52:27.116Z,98672.03
2023-02-19T00:53:28.630Z,98671.78
2023-02-19T00:54:31.624Z,98679.28
2023-02-19T00:55:32.982Z,98671.78
2023-02-19T00:56:34.832Z,98676.28
2023-02-19T00:57:36.274Z,98672.97
2023-02-19T00:58:38.380Z,98680.97
2023-02-19T00:59:39.896Z,98675.38
2023-02-19T01:00:41.328Z,98669.50
2023-02-19T01:01:45.092Z,98665.31
2023-02-19T01:02:46.573Z,98664.56
2023-02-19T01:03:48.523Z,98666.03
2023-02-19T01:04:50.130Z,98657.94
2023-02-19T01:05:52.428Z,98659.91
2023-02-19T01:06:55.913Z,98671.19
2023-02-19T01:07:57.356Z,98673.16
2023-02-19T01:08:59.180Z,98664.81
2023-02-19T01:10:00.633Z,98662.53
2023-02-19T01:11:04.847Z,98664.81
2023-02-19T01:12:06.686Z,98660.06
2023-02-19T01:13:08.253Z,98670.00
2023-02-19T01:14:09.973Z,98667.69
2023-02-19T01:15:11.435Z,98666.59
2023-02-19T01:16:18.844Z,98669.84
2023-02-19T01:17:20.950Z,98665.06
2023-02-19T01:18:22.413Z,98656.75
2023-02-19T01:19:23.915Z,98658.63
2023-02-19T01:20:26.504Z,98661.19
2023-02-19T01:21:29.470Z,98657.09
2023-02-19T01:22:30.797Z,98659.03
2023-02-19T01:23:32.185Z,98654.53
2023-02-19T01:24:33.512Z,98652.66
2023-02-19T01:25:34.834Z,98652.66
2023-02-19T01:26:36.183Z,98651.22
2023-02-19T01:27:37.510Z,98650.03
2023-02-19T01:28:39.133Z,98649.19
2023-02-19T01:29:40.676Z,98641.63
2023-02-19T01:30:42.180Z,98644.94
2023-02-19T01:31:43.767Z,98636.94
2023-02-19T01:32:45.363Z,98633.88
2023-02-19T01:33:52.411Z,98630.91
2023-02-19T01:34:53.874Z,98625.38
2023-02-19T01:35:55.471Z,98618.75
2023-02-19T01:36:56.908Z,98612.31
2023-02-19T01:37:58.383Z,98612.31
2023-02-19T01:39:03.748Z,98623.75
2023-02-19T01:40:05.544Z,98627.34
2023-02-19T01:41:10.101Z,98620.19
2023-02-19T01:42:16.494Z,98614.69
2023-02-19T01:43:17.954Z,98616.97
2023-02-19T01:44:22.519Z,98608.88
2023-02-19T01:45:32.486Z,98607.19
2023-02-19T01:46:36.004Z,98609.81
2023-02-19T01:47:37.483Z,98603.44
2023-02-19T01:48:39.706Z,98608.06
2023-02-19T01:49:59.269Z,98605.16
2023-02-19T01:51:12.749Z,98599.66
2023-02-19T01:52:34.407Z,98603.38
2023-02-19T01:53:43.854Z,98609.31
2023-02-19T01:54:46.718Z,98604.81
2023-02-19T01:55:52.490Z,98597.41
2023-02-19T01:56:56.724Z,98601.16
2023-02-19T01:57:58.554Z,98596.91
2023-02-19T01:59:01.038Z,98601.66
2023-02-19T02:00:08.225Z,98594.28
2023-02-19T02:01:10.340Z,98585.19
2023-02-19T02:02:13.036Z,98594.28
2023-02-19T02:03:16.200Z,98600.72
2023-02-19T02:04:18.835Z,98597.69
2023-02-19T02:05:41.894Z,98604.31
2023-02-19T02:06:49.544Z,98599.44
2023-02-19T02:08:09.649Z,98607.88
2023-02-19T02:09:29.955Z,98597.41
2023-02-19T02:10:31.540Z,98608.81
2023-02-19T02:11:33.391Z,98613.88
2023-02-19T02:12:35.028Z,98608.38
2023-02-19T02:13:40.052Z,98601.16
2023-02-19T02:14:45.718Z,98605.66
2023-02-19T02:16:10.161Z,98601.41
2023-02-19T02:17:27.241Z,98595.81
2023-02-19T02:18:39.466Z,98593.69
2023-02-19T02:19:43.843Z,98585.47
2023-02-19T02:21:00.495Z,98591.03
2023-02-19T02:22:05.207Z,98585.88
2023-02-19T02:23:28.380Z,98587.84
2023-02-19T02:24:35.678Z,98589.78
2023-02-19T02:26:12.768Z,98586.28
2023-02-19T02:27:49.076Z,98587.09
2023-02-19T02:29:47.849Z,98589.00
2023-02-19T02:30:58.244Z,98581.28
2023-02-19T02:32:12.017Z,98583.31
2023-02-19T02:33:19.828Z,98577.38
2023-02-19T02:34:30.329Z,98572.88
2023-02-19T02:35:47.949Z,98573.63
2023-02-19T02:36:55.576Z,98584.09
2023-02-19T02:38:02.825Z,98590.28
2023-02-19T02:39:10.693Z,98591.03
2023-02-19T02:40:12.268Z,98586.28
2023-02-19T02:41:15.443Z,98575.84
2023-02-19T02:42:29.325Z,98574.84
2023-02-19T02:43:30.751Z,98575.09
2023-02-19T02:44:36.332Z,98569.38
2023-02-19T02:45:39.738Z,98569.81
2023-02-19T02:46:45.275Z,98565.88
2023-02-19T02:47:52.891Z,98574.56
2023-02-19T02:48:58.230Z,98569.13
2023-02-19T02:50:06.201Z,98571.84
2023-02-19T02:51:15.701Z,98575.59
2023-02-19T02:52:40.232Z,98572.63
2023-02-19T02:54:02.170Z,98567.69
2023-02-19T02:55:09.764Z,98561.63
2023-02-19T02:56:14.277Z,98569.22
2023-02-19T02:57:17.659Z,98567.75
2023-02-19T02:58:22.434Z,98558.09
2023-02-19T02:59:27.403Z,98563.34
2023-02-19T03:00:49.625Z,98561.47
2023-02-19T03:02:12.302Z,98559.09
2023-02-19T03:03:17.500Z,98559.88
2023-02-19T03:04:30.027Z,98553.69
2023-02-19T03:05:50.634Z,98552.56
2023-02-19T03:06:53.502Z,98563.59
2023-02-19T03:08:10.958Z,98550.13
2023-02-19T03:09:31.042Z,98547.56
2023-02-19T03:10:40.908Z,98551.75
2023-02-19T03:12:05.232Z,98554.19
2023-02-19T03:13:31.452Z,98547.66
2023-02-19T03:15:09.321Z,98546.53
2023-02-19T03:16:36.556Z,98550.03
2023-02-19T03:18:11.243Z,98547.31
2023-02-19T03:19:21.496Z,98545.13
2023-02-19T03:20:24.686Z,98544.09
2023-02-19T03:21:28.393Z,98555.81
2023-02-19T03:22:33.472Z,98546.47
2023-02-19T03:23:55.858Z,98548.66
2023-02-19T03:25:22.680Z,98543.34
2023-02-19T03:26:26.185Z,98545.69
2023-02-19T03:27:34.472Z,98538.81
2023-02-19T03:28:57.615Z,98540.00
2023-02-19T03:30:03.053Z,98528.72
2023-02-19T03:31:04.682Z,98536.94
2023-02-19T03:32:21.325Z,98537.72
2023-02-19T03:33:27.067Z,98540.78
2023-02-19T03:34:37.904Z,98543.50
2023-02-19T03:35:46.493Z,98533.63
2023-02-19T03:36:58.383Z,98539.41
2023-02-19T03:38:04.544Z,98532.63
2023-02-19T03:39:08.529Z,98534.22
2023-02-19T03:40:11.399Z,98530.16
2023-02-19T03:41:40.043Z,98525.91
2023-02-19T03:43:09.783Z,98522.94
2023-02-19T03:44:22.317Z,98521.16
2023-02-19T03:45:27.538Z,98522.31
2023-02-19T03:46:52.974Z,98526.50
2023-02-19T03:48:03.264Z,98528.28
2023-02-19T03:49:34.023Z,98530.75
2023-02-19T03:50:48.206Z,98535.84
2023-02-19T03:52:12.726Z,98540.09
2023-02-19T03:53:23.228Z,98529.72
2023-02-19T03:54:44.876Z,98525.31
2023-02-19T03:56:03.100Z,98525.13
2023-02-19T03:57:14.244Z,98531.50
2023-02-19T03:58:31.624Z,98528.56
2023-02-19T03:59:48.951Z,98528.63
2023-02-19T04:01:07.066Z,98528.97
2023-02-19T04:02:13.812Z,98529.38
2023-02-19T04:03:26.989Z,98530.22
2023-02-19T04:04:35.188Z,98532.81
2023-02-19T04:05:43.110Z,98534.31
2023-02-19T04:06:52.584Z,98522.50
2023-02-19T04:08:09.273Z,98538.47
2023-02-19T04:09:14.852Z,98534.41
2023-02-19T04:10:18.178Z,98529.47
2023-02-19T04:11:22.393Z,98531.00
2023-02-19T04:12:24.324Z,98530.66
2023-02-19T04:13:33.032Z,98529.16
2023-02-19T04:14:49.850Z,98528.03
2023-02-19T04:15:54.960Z,98541.63
2023-02-19T04:17:04.934Z,98539.06
2023-02-19T04:18:14.377Z,98539.47
2023-02-19T04:19:21.285Z,98539.16
2023-02-19T04:20:26.134Z,98537.03
2023-02-19T04:21:30.340Z,98534.75
2023-02-19T04:22:31.999Z,98547.97
2023-02-19T04:23:39.332Z,98530.22
2023-02-19T04:24:47.826Z,98530.16
2023-02-19T04:25:55.207Z,98529.72
2023-02-19T04:26:57.261Z,98522.31
2023-02-19T04:27:59.005Z,98534.91
2023-02-19T04:29:00.872Z,98532.69
2023-02-19T04:30:02.369Z,98528.94
2023-02-19T04:31:04.052Z,98524.78
2023-02-19T04:32:05.706Z,98536.09
2023-02-19T04:33:07.145Z,98539.22
2023-02-19T04:34:08.713Z,98542.97
2023-02-19T04:35:10.499Z,98536.19
2023-02-19T04:36:12.220Z,98541.44
2023-02-19T04:37:13.723Z,98536.59
2023-02-19T04:38:15.306Z,98544.56
2023-02-19T04:39:16.744Z,98536.00
2023-02-19T04:40:18.339Z,98546.53
2023-02-19T04:41:19.742Z,98538.72
2023-02-19T04:42:21.164Z,98536.41
2023-02-19T04:43:22.672Z,98538.28
2023-02-19T04:44:24.200Z,98538.56
2023-02-19T04:45:25.861Z,98543.06
2023-02-19T04:46:27.483Z,98545.06
2023-02-19T04:47:28.946Z,98552.72
2023-02-19T04:48:30.441Z,98551.78
2023-02-19T04:49:32.009Z,98553.03
2023-02-19T04:50:33.519Z,98555.06
2023-02-19T04:51:35.008Z,98554.72
2023-02-19T04:52:36.547Z,98563.75
2023-02-19T04:53:38.642Z,98556.94
2023-02-19T04:54:40.118Z,98566.47
2023-02-19T04:55:41.604Z,98569.78
2023-02-19T04:56:43.062Z,98562.63
2023-02-19T04:57:44.501Z,98562.63
2023-02-19T04:58:45.910Z,98548.00
2023-02-19T04:59:47.682Z,98557.09
2023-02-19T05:00:53.143Z,98555.56
2023-02-19T05:01:54.767Z,98546.63
2023-02-19T05:02:56.336Z,98554.91
2023-02-19T05:03:57.929Z,98556.34
2023-02-19T05:04:59.478Z,98543.16
2023-02-19T05:06:10.006Z,98548.06
2023-02-19T05:07:11.589Z,98545.88
2023-02-19T05:08:13.172Z,98540.88
2023-02-19T05:09:14.668Z,98551.31
2023-02-19T05:10:16.185Z,98551.78
2023-02-19T05:11:17.674Z,98553.66
2023-02-19T05:12:19.128Z,98547.78
2023-02-19T05:13:20.613Z,98538.78
2023-02-19T05:14:22.220Z,98539.31
2023-02-19T05:15:23.661Z,98544.75
2023-02-19T05:16:25.117Z,98544.00
2023-02-19T05:17:26.686Z,98542.88
2023-02-19T05:18:28.580Z,98548.56
2023-02-19T05:19:29.996Z,98551.63
2023-02-19T05:20:31.439Z,98556.28
2023-02-19T05:21:32.939Z,98549.91
2023-02-19T05:22:34.568Z,98549.22
2023-02-19T05:23:36.182Z,98532.31
2023-02-19T05:24:37.677Z,98536.72
2023-02-19T05:25:39.108Z,98535.22
2023-02-19T05:26:40.538Z,98546.09
2023-02-19T05:27:41.945Z,98542.00
2023-02-19T05:28:44.885Z,98545.84
2023-02-19T05:29:46.233Z,98542.75
2023-02-19T05:30:52.785Z,98545.84
2023-02-19T05:31:54.396Z,98530.78
2023-02-19T05:32:56.088Z,98546.59
2023-02-19T05:33:57.680Z,98540.97
2023-02-19T05:34:59.138Z,98540.56
2023-02-19T05:36:06.246Z,98545.47
2023-02-19T05:37:07.713Z,98534.44
2023-02-19T05:38:09.590Z,98542.75
2023-02-19T05:39:12.302Z,98552.88
2023-02-19T05:40:13.778Z,98543.38
2023-02-19T05:41:24.504Z,98552.13
2023-02-19T05:42:25.906Z,98555.53
2023-02-19T05:43:27.313Z,98555.94
2023-02-19T05:44:28.894Z,98558.84
2023-02-19T05:45:30.436Z,98549.50
2023-02-19T05:46:32.008Z,98558.91
2023-02-19T05:47:33.458Z,98556.81
2023-02-19T05:48:35.165Z,98570.47
2023-02-19T05:49:36.749Z,98564.53
2023-02-19T05:50:39.771Z,98558.50
2023-02-19T05:51:41.469Z,98562.94
2023-02-19T05:52:44.210Z,98568.13
2023-02-19T05:53:46.780Z,98559.53
2023-02-19T05:54:48.497Z,98564.88
2023-02-19T05:55:50.176Z,98566.16
2023-02-19T05:56:51.811Z,98568.34
2023-02-19T05:57:53.209Z,98567.44
2023-02-19T05:58:54.968Z,98568.59
2023-02-19T05:59:56.600Z,98562.09
2023-02-19T06:00:58.057Z,98565.56
2023-02-19T06:01:59.625Z,98568.97
2023-02-19T06:03:01.439Z,98569.66
2023-02-19T06:04:03.047Z,98552.75
2023-02-19T06:05:05.467Z,98561.84
2023-02-19T06:06:07.446Z,98561.59
2023-02-19T06:07:09.363Z,98567.03
2023-02-19T06:08:15.104Z,98566.34
2023-02-19T06:09:17.171Z,98581.09
2023-02-19T06:10:19.190Z,98572.97
2023-02-19T06:11:20.998Z,98582.97
2023-02-19T06:12:22.672Z,98577.44
2023-02-19T06:13:24.523Z,98581.28
2023-02-19T06:14:25.949Z,98574.81
2023-02-19T06:15:27.435Z,98589.84
2023-02-19T06:16:29.325Z,98578.91
2023-02-19T06:17:31.034Z,98579.31
2023-02-19T06:18:32.677Z,98580.69
2023-02-19T06:19:34.096Z,98581.09
2023-02-19T06:20:35.635Z,98586.38
2023-02-19T06:21:37.259Z,98598.13
2023-02-19T06:22:38.720Z,98585.97
2023-02-19T06:23:41.025Z,98590.97
2023-02-19T06:24:42.579Z,98592.44
2023-02-19T06:25:43.997Z,98585.97
2023-02-19T06:26:46.535Z,98591.50
2023-02-19T06:27:47.980Z,98591.91
2023-02-19T06:28:50.963Z,98598.38
2023-02-19T06:29:52.391Z,98598.78
2023-02-19T06:30:53.830Z,98592.00
2023-02-19T06:31:55.314Z,98604.16
2023-02-19T06:32:56.962Z,98604.06
2023-02-19T06:33:58.595Z,98599.13
2023-02-19T06:35:00.110Z,98603.28
2023-02-19T06:36:04.101Z,98605.25
2023-02-19T06:37:05.564Z,98600.75
2023-02-19T06:38:07.441Z,98610.94
2023-02-19T06:39:09.881Z,98607.53
2023-02-19T06:40:11.625Z,98607.53
2023-02-19T06:41:13.975Z,98603.47
2023-02-19T06:42:15.586Z,98611.78
2023-02-19T06:43:17.158Z,98609.91
2023-02-19T06:44:18.599Z,98599.72
2023-02-19T06:45:20.099Z,98604.66
2023-02-19T06:46:21.605Z,98611.03
2023-02-19T06:47:25.373Z,98606.53
2023-02-19T06:48:28.602Z,98617.50
2023-02-19T06:49:30.082Z,98616.38
2023-02-19T06:50:31.537Z,98608.88
2023-02-19T06:51:33.585Z,98618.34
2023-02-19T06:52:35.435Z,98614.91
2023-02-19T06:53:36.899Z,98620.81
2023-02-19T06:54:38.313Z,98626.75
2023-02-19T06:55:40.449Z,98620.88
2023-02-19T06:56:43.949Z,98617.56
2023-02-19T06:57:46.291Z,98619.09
2023-02-19T06:58:47.952Z,98623.34
2023-02-19T06:59:49.393Z,98624.09
2023-02-19T07:00:51.133Z,98624.88
2023-02-19T07:01:52.624Z,98627.44
2023-02-19T07:02:56.590Z,98620.56
2023-02-19T07:03:58.991Z,98626.50
2023-02-19T07:05:00.423Z,98618.25
2023-02-19T07:06:01.985Z,98613.16
2023-02-19T07:07:03.496Z,98617.75
2023-02-19T07:08:05.485Z,98622.75
2023-02-19T07:09:08.440Z,98625.13
2023-02-19T07:10:09.930Z,98629.97
2023-02-19T07:11:11.693Z,98634.75
2023-02-19T07:12:13.331Z,98630.59
2023-02-19T07:13:14.890Z,98620.38
2023-02-19T07:14:17.208Z,98633.63
2023-02-19T07:15:18.628Z,98634.28
2023-02-19T07:16:20.179Z,98631.00
2023-02-19T07:17:21.611Z,98643.50
2023-02-19T07:18:23.083Z,98632.25
2023-02-19T07:19:24.495Z,98640.09
2023-02-19T07:20:26.105Z,98635.84
2023-02-19T07:21:28.415Z,98637.69
2023-02-19T07:22:30.161Z,98641.19
2023-02-19T07:23:32.163Z,98640.09
2023-02-19T07:24:33.622Z,98647.16
2023-02-19T07:25:35.078Z,98649.03
2023-02-19T07:26:36.489Z,98638.63
2023-02-19T07:27:37.998Z,98651.06
2023-02-19T07:28:43.600Z,98654.69
2023-02-19T07:29:45.115Z,98656.56
2023-02-19T07:30:46.587Z,98652.47
2023-02-19T07:31:48.276Z,98646.44
2023-02-19T07:32:49.781Z,98658.84
2023-02-19T07:33:51.954Z,98652.06
2023-02-19T07:34:53.422Z,98651.81
2023-02-19T07:35:54.907Z,98654.97
2023-02-19T07:36:56.348Z,98663.47
2023-02-19T07:37:57.829Z,98661.84
2023-02-19T07:39:00.283Z,98653.19
2023-02-19T07:40:02.120Z,98658.53
2023-02-19T07:41:05.208Z,98662.34
2023-02-19T07:42:06.799Z,98657.09
2023-02-19T07:43:08.338Z,98667.38
2023-02-19T07:44:09.880Z,98658.03
2023-02-19T07:45:11.317Z,98669.34
2023-02-19T07:46:13.950Z,98667.13
2023-02-19T07:47:15.363Z,98675.09
2023-02-19T07:48:18.051Z,98670.19
2023-02-19T07:49:19.543Z,98660.41
2023-02-19T07:50:21.030Z,98680.13
2023-02-19T07:51:22.702Z,98666.94
2023-02-19T07:52:24.248Z,98661.59
2023-02-19T07:53:26.776Z,98672.81
2023-02-19T07:54:30.812Z,98670.25
2023-02-19T07:55:33.270Z,98653.44
2023-02-19T07:56:34.782Z,98657.19
2023-02-19T07:57:36.408Z,98661.34
2023-02-19T07:58:38.186Z,98650.88
2023-02-19T07:59:39.613Z,98669.31
2023-02-19T08:00:41.053Z,98657.63
2023-02-19T08:02:01.140Z,98658.78
2023-02-19T08:03:03.187Z,98646.72
2023-02-19T08:04:04.838Z,98661.88
2023-02-19T08:05:07.059Z,98662.63
2023-02-19T08:06:11.131Z,98662.94
2023-02-19T08:07:12.715Z,98673.84
2023-02-19T08:08:14.978Z,98671.19
2023-02-19T08:09:16.365Z,98670.78
2023-02-19T08:10:36.591Z,98681.31
2023-02-19T08:11:56.809Z,98679.38
2023-02-19T08:13:18.610Z,98675.72
2023-02-19T08:14:20.211Z,98675.28
2023-02-19T08:15:22.492Z,98687.78
2023-02-19T08:16:40.685Z,98689.66
2023-02-19T08:17:44.222Z,98698.31
2023-02-19T08:18:47.863Z,98693.03
2023-02-19T08:19:49.285Z,98696.88
2023-02-19T08:20:51.359Z,98688.97
2023-02-19T08:21:53.611Z,98694.66
2023-02-19T08:22:55.165Z,98692.53
2023-02-19T08:23:56.608Z,98698.31
2023-02-19T08:24:58.060Z,98692.47
2023-02-19T08:26:01.318Z,98688.72
2023-02-19T08:27:02.747Z,98683.50
2023-02-19T08:28:05.339Z,98699.31
2023-02-19T08:29:06.813Z,98698.25
2023-02-19T08:30:08.923Z,98706.22
2023-02-19T08:31:11.980Z,98695.63
2023-02-19T08:32:13.875Z,98703.84
2023-02-19T08:33:22.708Z,98701.13
2023-02-19T08:34:24.127Z,98695.09
2023-02-19T08:35:25.910Z,98697.56
2023-02-19T08:36:27.559Z,98717.28
2023-02-19T08:37:29.199Z,98708.59
2023-02-19T08:38:32.322Z,98710.56
2023-02-19T08:39:33.884Z,98727.16
2023-02-19T08:40:37.323Z,98704.84
2023-02-19T08:41:38.796Z,98718.03
2023-02-19T08:42:40.512Z,98713.22
2023-02-19T08:43:42.826Z,98719.34
2023-02-19T08:44:44.438Z,98709.97
2023-02-19T08:45:47.564Z,98716.34
2023-02-19T08:46:49.500Z,98720.50
2023-02-19T08:47:50.958Z,98725.97
2023-02-19T08:48:52.520Z,98727.06
2023-02-19T08:49:54.002Z,98725.63
2023-02-19T08:50:57.437Z,98728.25
2023-02-19T08:51:59.380Z,98730.47
2023-02-19T08:53:01.715Z,98726.63
2023-02-19T08:54:04.276Z,98736.06
2023-02-19T08:55:06.487Z,98731.56
2023-02-19T08:56:15.951Z,98739.56
2023-02-19T08:57:17.352Z,98735.13
2023-02-19T08:58:18.765Z,98738.63
2023-02-19T08:59:20.719Z,98730.84
2023-02-19T09:00:22.817Z,98740.50
2023-02-19T09:01:24.729Z,98739.06
2023-02-19T09:02:26.860Z,98735.75
2023-02-19T09:03:28.288Z,98733.13
2023-02-19T09:04:29.947Z,98732.97
2023-02-19T09:05:31.792Z,98733.06
2023-02-19T09:06:33.274Z,98742.22
2023-02-19T09:07:34.677Z,98744.94
2023-02-19T09:08:36.153Z,98744.78
2023-02-19T09:09:38.207Z,98742.91
2023-02-19T09:10:39.785Z,98750.81
2023-02-19T09:11:41.613Z,98748.53
2023-02-19T09:12:43.148Z,98756.34
2023-02-19T09:13:44.896Z,98747.16
2023-02-19T09:14:46.712Z,98761.97
2023-02-19T09:15:48.265Z,98758.97
2023-02-19T09:16:50.028Z,98759.75
2023-02-19T09:17:53.035Z,98765.38
2023-02-19T09:18:54.417Z,98768.34
2023-02-19T09:19:55.740Z,98765.78
2023-02-19T09:21:01.030Z,98766.03
2023-02-19T09:22:04.243Z,98773.63
2023-02-19T09:23:05.643Z,98766.47
2023-02-19T09:24:09.542Z,98769.81
2023-02-19T09:25:11.019Z,98784.97
2023-02-19T09:26:14.022Z,98789.50
2023-02-19T09:27:16.998Z,98780.50
2023-02-19T09:28:18.500Z,98784.22
2023-02-19T09:29:21.048Z,98778.19
2023-02-19T09:30:22.930Z,98783.44
2023-02-19T09:31:24.857Z,98795.22
2023-02-19T09:32:26.410Z,98787.28
2023-02-19T09:33:27.857Z,98804.66
2023-02-19T09:34:29.334Z,98791.50
2023-02-19T09:35:30.768Z,98791.56
2023-02-19T09:36:33.821Z,98799.47
2023-02-19T09:37:35.319Z,98796.00
2023-02-19T09:38:36.901Z,98805.75
2023-02-19T09:39:38.532Z,98792.56
2023-02-19T09:40:40.189Z,98791.50
2023-02-19T09:41:49.339Z,98798.28
2023-02-19T09:42:51.224Z,98803.56
2023-02-19T09:43:56.089Z,98803.22
2023-02-19T09:45:00.485Z,98806.97
2023-02-19T09:46:10.020Z,98802.78
2023-02-19T09:47:22.863Z,98796.19
2023-02-19T09:48:24.389Z,98794.00
2023-02-19T09:49:34.660Z,98800.69
2023-02-19T09:50:48.475Z,98801.16
2023-02-19T09:51:59.685Z,98798.31
2023-02-19T09:53:05.323Z,98798.06
2023-02-19T09:54:13.270Z,98801.91
2023-02-19T09:55:37.961Z,98795.31
2023-02-19T09:56:40.010Z,98797.28
2023-02-19T09:57:43.524Z,98799.56
2023-02-19T09:58:52.062Z,98791.75
2023-02-19T10:00:01.776Z,98797.00
2023-02-19T10:01:05.944Z,98794.78
2023-02-19T10:02:17.116Z,98791.13
2023-02-19T10:03:31.704Z,98799.03
2023-02-19T10:04:33.173Z,98799.56
2023-02-19T10:05:35.338Z,98798.28
2023-02-19T10:06:38.362Z,98801.78
2023-02-19T10:07:47.803Z,98798.44
2023-02-19T10:08:52.398Z,98805.69
2023-02-19T10:10:02.045Z,98801.19
2023-02-19T10:11:06.151Z,98794.78
2023-02-19T10:12:23.332Z,98796.75
2023-02-19T10:13:35.906Z,98797.78
2023-02-19T10:14:44.848Z,98802.69
2023-02-19T10:15:54.373Z,98799.41
2023-02-19T10:16:59.321Z,98797.88
2023-02-19T10:18:00.801Z,98803.56
2023-02-19T10:19:02.375Z,98805.84
2023-02-19T10:20:04.613Z,98807.81
2023-02-19T10:21:06.418Z,98811.88
2023-02-19T10:22:12.163Z,98807.72
2023-02-19T10:23:15.691Z,98815.63
2023-02-19T10:24:24.380Z,98819.16
2023-02-19T10:25:25.830Z,98821.78
2023-02-19T10:26:28.124Z,98817.41
2023-02-19T10:27:31.139Z,98820.38
2023-02-19T10:28:36.398Z,98823.66
2023-02-19T10:29:37.915Z,98819.25
2023-02-19T10:30:39.510Z,98826.53
2023-02-19T10:31:41.434Z,98822.44
2023-02-19T10:33:18.281Z,98826.03
2023-02-19T10:34:22.538Z,98829.50
2023-02-19T10:35:24.037Z,98832.56
2023-02-19T10:36:30.469Z,98835.13
2023-02-19T10:37:33.614Z,98827.56
2023-02-19T10:38:56.227Z,98827.56
2023-02-19T10:39:58.723Z,98827.19
2023-02-19T10:41:13.416Z,98830.38
2023-02-19T10:42:23.074Z,98838.59
2023-02-19T10:43:33.134Z,98826.97
2023-02-19T10:44:42.234Z,98834.44
2023-02-19T10:45:47.925Z,98843.63
2023-02-19T10:46:51.951Z,98843.31
2023-02-19T10:47:53.566Z,98843.72
2023-02-19T10:49:07.531Z,98844.84
2023-02-19T10:50:23.846Z,98836.66
2023-02-19T10:51:35.001Z,98850.53
2023-02-19T10:52:36.633Z,98843.38
2023-02-19T10:53:48.836Z,98844.22
2023-02-19T10:54:57.227Z,98849.91
2023-02-19T10:56:13.441Z,98848.75
2023-02-19T10:57:14.970Z,98848.75
2023-02-19T10:58:26.949Z,98850.28
2023-02-19T10:59:29.031Z,98859.72
2023-02-19T11:00:31.379Z,98852.16
2023-02-19T11:01:33.224Z,98857.84
2023-02-19T11:02:34.761Z,98854.84
2023-02-19T11:03:36.302Z,98866.94
2023-02-19T11:04:39.550Z,98860.56
2023-02-19T11:05:52.567Z,98868.88
2023-02-19T11:06:54.345Z,98856.13
2023-02-19T11:07:57.169Z,98864.31
2023-02-19T11:09:01.664Z,98868.88
2023-02-19T11:10:05.654Z,98868.78
2023-02-19T11:11:07.148Z,98873.75
2023-02-19T11:12:10.459Z,98875.94
2023-02-19T11:13:20.728Z,98864.38
2023-02-19T11:14:24.597Z,98865.22
2023-02-19T11:15:30.328Z,98867.56
2023-02-19T11:16:44.710Z,98865.44
2023-02-19T11:17:55.096Z,98873.84
2023-02-19T11:18:57.304Z,98873.84
2023-02-19T11:20:07.170Z,98868.66
2023-02-19T11:21:25.400Z,98873.41
2023-02-19T11:22:31.521Z,98879.13
2023-02-19T11:23:35.864Z,98878.78
2023-02-19T11:24:40.522Z,98883.72
2023-02-19T11:26:04.036Z,98882.28
2023-02-19T11:27:16.937Z,98873.84
2023-02-19T11:28:36.400Z,98882.38
2023-02-19T11:29:38.158Z,98868.22
2023-02-19T11:30:42.557Z,98878.88
2023-02-19T11:31:44.230Z,98883.13
2023-02-19T11:32:45.758Z,98880.91
2023-02-19T11:34:02.072Z,98887.13
2023-02-19T11:35:25.207Z,98883.53
2023-02-19T11:36:30.800Z,98878.38
2023-02-19T11:37:33.252Z,98877.66
2023-02-19T11:38:35.438Z,98886.38
2023-02-19T11:39:37.444Z,98881.94
2023-02-19T11:40:45.555Z,98882.38
2023-02-19T11:41:56.376Z,98885.69
2023-02-19T11:43:12.847Z,98883.47
2023-02-19T11:44:31.547Z,98880.50
2023-02-19T11:45:42.793Z,98883.91
2023-02-19T11:47:01.566Z,98877.34
2023-02-19T11:48:31.157Z,98887.63
2023-02-19T11:49:52.822Z,98872.91
2023-02-19T11:51:27.834Z,98886.53
2023-02-19T11:53:22.198Z,98887.03
2023-02-19T11:54:42.624Z,98886.28
2023-02-19T11:55:59.110Z,98881.09
2023-02-19T11:57:31.113Z,98886.59
2023-02-19T11:59:00.911Z,98897.69
2023-02-19T12:00:15.677Z,98883.13
2023-02-19T12:01:19.953Z,98889.69
2023-02-19T12:02:47.672Z,98898.44
2023-02-19T12:04:14.187Z,98895.81
2023-02-19T12:05:24.362Z,98903.06
2023-02-19T12:07:03.187Z,98912.84
2023-02-19T12:08:29.285Z,98909.34
2023-02-19T12:09:52.860Z,98905.19
2023-02-19T12:11:09.031Z,98914.19
2023-02-19T12:12:28.736Z,98903.88
2023-02-19T12:14:00.758Z,98907.28
2023-02-19T12:15:39.279Z,98932.41
2023-02-19T12:16:55.929Z,98924.63
2023-02-19T12:18:22.917Z,98911.38
2023-02-19T12:19:42.299Z,98916.88
2023-02-19T12:21:13.310Z,98911.53
2023-02-19T12:22:28.479Z,98897.56
2023-02-19T12:23:39.003Z,98906.66
2023-02-19T12:25:00.778Z,98904.13
2023-02-19T12:26:02.144Z,98901.03
2023-02-19T12:27:41.443Z,98902.25
2023-02-19T12:29:06.291Z,98898.84
2023-02-19T12:30:26.916Z,98909.91
2023-02-19T12:31:45.173Z,98919.28
2023-02-19T12:32:55.468Z,98912.38
2023-02-19T12:34:04.284Z,98908.50
2023-02-19T12:35:26.962Z,98895.31
2023-02-19T12:36:50.789Z,98890.78
2023-02-19T12:38:24.594Z,98892.66
2023-02-19T12:39:25.927Z,98901.50
2023-02-19T12:40:38.676Z,98893.47
2023-02-19T12:42:00.256Z,98897.31
2023-02-19T12:43:18.707Z,98898.50
2023-02-19T12:44:28.755Z,98896.56
2023-02-19T12:45:32.846Z,98899.63
2023-02-19T12:46:46.769Z,98896.72
2023-02-19T12:48:21.382Z,98903.22
2023-02-19T12:49:32.538Z,98907.53
2023-02-19T12:50:35.785Z,98901.59
2023-02-19T12:51:45.328Z,98898.19
2023-02-19T12:52:51.926Z,98910.34
2023-02-19T12:54:25.254Z,98908.56
2023-02-19T12:55:35.318Z,98917.69
2023-02-19T12:56:48.873Z,98916.91
2023-02-19T12:57:51.748Z,98905.84
2023-02-19T12:59:02.431Z,98911.19
2023-02-19T13:00:19.033Z,98911.63